Time;durP1;ratioP1;P1;durP2;ratioP2;P2;SDS_P1;SDS_P2;PMS_P1;PMS_P2;Temp;Humidity;BMP_temperature;BMP_pressure;BME280_temperature;BME280_humidity;BME280_pressure;Samples;Min_cycle;Max_cycle;Signal;HPM_P1;HPM_P2
2021/05/28 00:00:16;;;;;;;2.25;1.58;;;9.00;99.90;;;;;;4992720;28;20443;-79
2021/05/28 00:02:42;;;;;;;3.22;1.63;;;9.00;99.90;;;;;;4993426;28;20034;-80
2021/05/28 00:05:08;;;;;;;3.25;1.88;;;9.00;99.90;;;;;;4992596;28;20040;-81
2021/05/28 00:07:34;;;;;;;1.58;1.48;;;9.00;99.90;;;;;;4991910;28;20065;-79
2021/05/28 00:10:00;;;;;;;1.70;1.45;;;8.90;99.90;;;;;;4992638;28;20062;-79
2021/05/28 00:12:27;;;;;;;4.30;1.70;;;8.90;99.90;;;;;;4994070;28;20109;-80
2021/05/28 00:14:52;;;;;;;6.18;1.33;;;8.90;99.90;;;;;;4994186;28;20057;-81
2021/05/28 00:17:18;;;;;;;2.05;1.70;;;8.90;99.90;;;;;;4992617;28;20022;-80
2021/05/28 00:19:44;;;;;;;2.22;1.67;;;8.80;99.90;;;;;;4992767;28;20423;-79
2021/05/28 00:22:09;;;;;;;3.30;1.60;;;8.80;99.90;;;;;;4993863;28;20351;-79
2021/05/28 00:24:35;;;;;;;5.95;1.45;;;8.90;99.90;;;;;;4992619;28;20026;-79
2021/05/28 00:27:01;;;;;;;1.80;1.38;;;8.90;99.90;;;;;;4994005;28;20493;-79
2021/05/28 00:29:26;;;;;;;1.95;1.50;;;8.80;99.90;;;;;;4993345;28;20478;-79
2021/05/28 00:31:52;;;;;;;3.63;1.70;;;8.80;99.90;;;;;;4995815;28;20121;-79
2021/05/28 00:34:18;;;;;;;4.60;1.77;;;8.70;99.90;;;;;;4995799;28;20369;-79
2021/05/28 00:36:43;;;;;;;1.77;1.60;;;8.70;99.90;;;;;;5013302;28;20504;-79
2021/05/28 00:39:09;;;;;;;2.45;1.75;;;8.70;99.90;;;;;;5013041;28;20033;-81
2021/05/28 00:41:35;;;;;;;2.67;1.50;;;8.60;99.90;;;;;;4995711;28;20025;-78
2021/05/28 00:44:01;;;;;;;1.60;1.50;;;8.60;99.90;;;;;;4995453;28;20092;-79
2021/05/28 00:46:27;;;;;;;2.45;1.67;;;8.60;99.90;;;;;;5013182;28;20022;-79
2021/05/28 00:48:54;;;;;;;2.28;1.60;;;8.60;99.90;;;;;;5013122;28;20032;-80
2021/05/28 00:51:23;;;;;;;2.05;1.85;;;8.50;99.90;;;;;;4995399;28;20092;-79
2021/05/28 00:53:49;;;;;;;2.33;1.80;;;8.50;99.90;;;;;;5013246;28;20014;-80
2021/05/28 00:56:16;;;;;;;3.78;1.75;;;8.40;99.90;;;;;;5013544;28;20045;-81
2021/05/28 00:58:42;;;;;;;5.15;1.52;;;8.40;99.90;;;;;;5013085;28;20030;-79
2021/05/28 01:01:08;;;;;;;2.33;1.88;;;8.40;99.90;;;;;;5012874;28;20030;-80
2021/05/28 01:03:34;;;;;;;2.25;1.80;;;8.30;99.90;;;;;;4995548;28;20022;-81
2021/05/28 01:06:00;;;;;;;2.42;1.60;;;8.30;99.90;;;;;;4994921;28;20022;-80
2021/05/28 01:08:26;;;;;;;3.67;1.85;;;8.40;99.90;;;;;;4998532;28;20029;-79
2021/05/28 01:10:51;;;;;;;1.67;1.52;;;8.20;99.90;;;;;;5016789;28;20033;-78
2021/05/28 01:13:17;;;;;;;4.10;1.80;;;8.20;99.90;;;;;;5016672;28;20359;-80
2021/05/28 01:15:43;;;;;;;3.65;2.58;;;8.20;99.90;;;;;;5017043;28;20353;-80
2021/05/28 01:18:09;;;;;;;3.63;1.98;;;8.30;99.90;;;;;;4998858;28;20018;-80
2021/05/28 01:20:36;;;;;;;4.05;1.92;;;8.20;99.90;;;;;;5016724;28;20076;-79
2021/05/28 01:23:03;;;;;;;1.60;1.50;;;8.20;99.90;;;;;;5016721;28;20485;-82
2021/05/28 01:25:30;;;;;;;2.35;1.58;;;8.10;99.90;;;;;;4999188;28;20046;-81
2021/05/28 01:27:56;;;;;;;2.55;1.75;;;8.10;99.90;;;;;;4999154;28;20068;-78
2021/05/28 01:30:23;;;;;;;3.03;1.88;;;8.10;99.90;;;;;;5016697;28;20069;-78
2021/05/28 01:32:49;;;;;;;3.58;2.03;;;8.00;99.90;;;;;;4999010;28;20046;-79
2021/05/28 01:35:15;;;;;;;2.15;1.90;;;8.10;99.90;;;;;;5016685;28;20075;-80
2021/05/28 01:37:43;;;;;;;3.65;1.90;;;7.90;99.90;;;;;;4999014;28;20050;-79
2021/05/28 01:40:10;;;;;;;5.00;2.00;;;7.90;99.90;;;;;;5016197;28;20466;-80
2021/05/28 01:42:36;;;;;;;2.28;1.80;;;7.80;99.90;;;;;;4998785;28;20030;-80
2021/05/28 01:45:03;;;;;;;3.72;1.85;;;7.80;99.90;;;;;;5016503;28;20084;-79
2021/05/28 01:47:29;;;;;;;4.70;2.30;;;7.90;99.90;;;;;;5016094;28;20037;-82
2021/05/28 01:49:55;;;;;;;1.65;1.55;;;7.80;99.90;;;;;;5015973;28;20060;-80
2021/05/28 01:52:25;;;;;;;2.38;1.80;;;7.80;99.90;;;;;;5016464;28;20054;-79
2021/05/28 01:54:50;;;;;;;2.88;2.00;;;7.80;99.90;;;;;;5016451;28;20029;-78
2021/05/28 01:57:17;;;;;;;3.40;2.05;;;7.60;99.90;;;;;;5015977;28;20018;-80
2021/05/28 01:59:46;;;;;;;2.10;1.90;;;7.60;99.90;;;;;;5015757;28;20048;-81
2021/05/28 02:02:13;;;;;;;3.40;2.00;;;7.60;99.90;;;;;;4998456;28;20030;-81
2021/05/28 02:04:39;;;;;;;6.60;2.00;;;7.50;99.90;;;;;;5016249;28;20018;-81
2021/05/28 02:07:06;;;;;;;2.00;1.80;;;7.50;99.90;;;;;;4998206;28;20117;-81
2021/05/28 02:09:32;;;;;;;2.53;1.70;;;7.50;99.90;;;;;;4997836;28;20109;-80
2021/05/28 02:11:59;;;;;;;2.78;1.60;;;7.50;99.90;;;;;;4998717;28;20030;-80
2021/05/28 02:14:28;;;;;;;1.52;1.42;;;7.50;99.90;;;;;;5015574;28;20836;-78
2021/05/28 02:16:55;;;;;;;3.33;1.63;;;7.50;99.90;;;;;;5015954;28;20087;-78
2021/05/28 02:19:21;;;;;;;3.80;1.70;;;7.50;99.90;;;;;;5014454;28;20025;-81
2021/05/28 02:21:48;;;;;;;4.13;1.90;;;7.50;99.90;;;;;;4998405;28;20030;-80
2021/05/28 02:24:15;;;;;;;2.22;1.95;;;7.50;99.90;;;;;;4998241;28;20362;-79
2021/05/28 02:26:45;;;;;;;2.38;1.90;;;7.50;99.90;;;;;;5015706;28;20022;-82
2021/05/28 02:29:11;;;;;;;2.30;1.95;;;7.50;99.90;;;;;;5015539;28;20469;-81
2021/05/28 02:31:37;;;;;;;2.72;2.20;;;7.40;99.90;;;;;;4997670;28;20048;-81
2021/05/28 02:34:04;;;;;;;2.13;1.92;;;7.50;99.90;;;;;;4997718;28;20038;-80
2021/05/28 02:36:29;;;;;;;5.25;2.45;;;7.40;99.90;;;;;;4997515;28;20036;-81
2021/05/28 02:38:55;;;;;;;4.85;2.15;;;7.40;99.90;;;;;;4997526;28;20112;-81
2021/05/28 02:41:21;;;;;;;4.28;1.85;;;7.40;99.90;;;;;;4997986;28;20057;-80
2021/05/28 02:43:46;;;;;;;2.00;1.80;;;7.40;99.90;;;;;;4997595;28;20769;-82
2021/05/28 02:46:12;;;;;;;2.30;2.10;;;7.30;99.90;;;;;;5014929;28;20034;-81
2021/05/28 02:48:38;;;;;;;3.78;2.15;;;7.30;99.90;;;;;;5014944;28;20423;-78
2021/05/28 02:51:04;;;;;;;2.35;1.98;;;7.30;99.90;;;;;;4997234;28;20117;-80
2021/05/28 02:53:34;;;;;;;2.83;2.20;;;7.20;99.90;;;;;;5014921;28;20022;-79
2021/05/28 02:56:01;;;;;;;2.55;1.95;;;7.20;99.90;;;;;;4997523;28;20437;-81
2021/05/28 02:58:26;;;;;;;2.80;1.83;;;7.20;99.90;;;;;;5015095;28;20025;-77
2021/05/28 03:00:52;;;;;;;4.05;1.98;;;7.10;99.90;;;;;;4997796;28;20056;-81
2021/05/28 03:03:18;;;;;;;4.97;2.00;;;7.10;99.90;;;;;;4997344;28;20536;-79
2021/05/28 03:05:44;;;;;;;6.72;2.30;;;7.10;99.90;;;;;;4997685;28;20022;-81
2021/05/28 03:08:09;;;;;;;4.00;2.20;;;7.10;99.90;;;;;;5014878;28;20466;-81
2021/05/28 03:10:35;;;;;;;6.70;3.00;;;7.10;99.90;;;;;;4996960;28;20128;-80
2021/05/28 03:13:00;;;;;;;5.45;2.42;;;7.10;99.90;;;;;;5014740;28;20416;-78
2021/05/28 03:15:26;;;;;;;6.75;2.72;;;7.10;99.90;;;;;;4996563;28;20085;-81
2021/05/28 03:17:53;;;;;;;3.20;2.63;;;7.10;99.90;;;;;;5014735;28;20104;-80
2021/05/28 03:20:34;;;;;;;3.63;2.13;;;7.10;99.90;;;;;;4996777;28;20029;-80
2021/05/28 03:23:00;;;;;;;2.85;1.85;;;7.00;99.90;;;;;;5014269;28;20109;-81
2021/05/28 03:25:26;;;;;;;2.10;1.95;;;7.00;99.90;;;;;;4996637;28;20037;-79
2021/05/28 03:27:53;;;;;;;5.82;2.20;;;6.90;99.90;;;;;;4996911;28;20382;-80
2021/05/28 03:30:20;;;;;;;6.43;2.10;;;7.00;99.90;;;;;;5014270;28;20041;-79
2021/05/28 03:32:46;;;;;;;2.50;1.98;;;6.90;99.90;;;;;;4996676;28;20047;-79
2021/05/28 03:35:13;;;;;;;3.03;2.40;;;6.80;99.90;;;;;;4997197;28;20441;-80
2021/05/28 03:37:42;;;;;;;4.28;2.42;;;6.80;99.90;;;;;;4996567;28;20460;-81
2021/05/28 03:40:09;;;;;;;2.85;2.38;;;6.80;99.90;;;;;;4996541;28;20026;-80
2021/05/28 03:42:34;;;;;;;3.88;2.60;;;6.80;99.90;;;;;;4996762;28;20790;-78
2021/05/28 03:45:00;;;;;;;4.30;2.83;;;6.80;99.90;;;;;;4996752;28;20117;-79
2021/05/28 03:47:26;;;;;;;5.70;2.35;;;6.90;99.90;;;;;;4996644;28;20029;-79
2021/05/28 03:49:51;;;;;;;2.63;2.28;;;6.90;99.90;;;;;;4996436;28;20073;-79
2021/05/28 03:52:17;;;;;;;5.07;2.45;;;6.90;99.90;;;;;;5014474;28;20029;-75
2021/05/28 03:54:43;;;;;;;2.72;2.20;;;6.90;99.90;;;;;;5014266;28;20087;-81
2021/05/28 03:57:08;;;;;;;4.38;2.30;;;7.00;99.90;;;;;;5000855;28;20393;-78
2021/05/28 03:59:34;;;;;;;4.22;2.35;;;8.90;99.90;;;;;;5016863;28;20045;-78
2021/05/28 04:02:00;;;;;;;2.60;1.95;;;9.30;99.90;;;;;;5013449;28;20018;-79
2021/05/28 04:04:26;;;;;;;2.28;1.40;;;10.30;99.90;;;;;;5013287;28;20037;-75
2021/05/28 04:06:51;;;;;;;1.33;1.10;;;10.90;99.90;;;;;;5013725;28;20452;-79
2021/05/28 04:09:17;;;;;;;2.65;1.00;;;11.40;99.90;;;;;;4995721;28;20033;-80
2021/05/28 04:11:43;;;;;;;3.28;1.10;;;10.90;99.90;;;;;;5013260;28;20065;-77
2021/05/28 04:14:08;;;;;;;6.05;1.23;;;10.80;99.90;;;;;;5013126;28;20025;-78
2021/05/28 04:16:34;;;;;;;1.52;1.02;;;10.90;99.90;;;;;;5013129;28;20025;-75
2021/05/28 04:19:00;;;;;;;1.73;1.48;;;10.10;99.90;;;;;;5013076;28;20080;-78
2021/05/28 04:21:25;;;;;;;1.70;1.13;;;10.20;99.90;;;;;;5013396;28;20066;-77
2021/05/28 04:23:51;;;;;;;1.95;1.30;;;10.70;99.90;;;;;;5013025;28;20528;-77
2021/05/28 04:26:17;;;;;;;2.85;1.30;;;10.90;99.90;;;;;;5013207;28;20561;-76
2021/05/28 04:28:42;;;;;;;3.25;1.60;;;10.90;99.90;;;;;;5012967;28;20022;-75
2021/05/28 04:31:08;;;;;;;2.90;1.27;;;10.80;99.90;;;;;;5013037;28;20041;-77
2021/05/28 04:33:34;;;;;;;4.85;1.30;;;11.00;99.90;;;;;;5012423;28;20397;-78
2021/05/28 04:35:59;;;;;;;5.40;2.10;;;11.20;99.90;;;;;;5012485;28;20030;-77
2021/05/28 04:38:25;;;;;;;5.78;3.53;;;11.60;99.90;;;;;;5012690;28;20439;-78
2021/05/28 04:40:53;;;;;;;6.00;1.55;;;11.40;99.90;;;;;;5012641;28;20039;-78
2021/05/28 04:43:19;;;;;;;8.02;1.50;;;11.20;99.90;;;;;;5015352;28;20354;-77
2021/05/28 04:45:45;;;;;;;2.42;1.20;;;11.20;99.90;;;;;;5016024;28;20144;-75
2021/05/28 04:48:11;;;;;;;1.40;1.00;;;11.70;99.90;;;;;;5016605;28;20068;-78
2021/05/28 04:50:37;;;;;;;3.70;1.60;;;12.10;99.90;;;;;;5016626;28;20481;-79
2021/05/28 04:53:05;;;;;;;4.65;1.05;;;11.90;99.90;;;;;;5016503;28;20025;-76
2021/05/28 04:55:31;;;;;;;1.80;1.17;;;12.10;99.90;;;;;;5016720;28;20030;-77
2021/05/28 04:57:58;;;;;;;1.92;1.42;;;11.80;99.90;;;;;;5016462;28;20030;-75
2021/05/28 05:00:25;;;;;;;2.17;1.30;;;11.70;99.90;;;;;;5016395;28;20150;-77
2021/05/28 05:02:51;;;;;;;2.00;1.10;;;12.40;99.90;;;;;;5015849;28;20021;-77
2021/05/28 05:05:17;;;;;;;1.83;1.20;;;12.70;99.90;;;;;;5016371;28;20026;-78
2021/05/28 05:07:43;;;;;;;3.38;1.50;;;12.50;99.90;;;;;;5016362;28;20026;-78
2021/05/28 05:10:10;;;;;;;3.03;1.30;;;12.40;99.90;;;;;;5015995;28;20036;-77
2021/05/28 05:12:37;;;;;;;3.25;1.10;;;12.30;99.90;;;;;;5016255;28;20034;-76
2021/05/28 05:15:03;;;;;;;3.50;1.30;;;12.40;99.90;;;;;;5016084;28;20493;-76
2021/05/28 05:17:28;;;;;;;3.30;1.40;;;12.20;99.90;;;;;;5016046;28;20041;-77
2021/05/28 05:19:54;;;;;;;1.40;1.20;;;12.10;99.90;;;;;;5015622;28;20022;-78
2021/05/28 05:22:20;;;;;;;3.10;1.50;;;11.80;99.90;;;;;;5016236;28;20080;-78
2021/05/28 05:24:45;;;;;;;2.95;1.50;;;11.60;99.90;;;;;;5016035;28;20026;-78
2021/05/28 05:27:11;;;;;;;2.53;1.88;;;11.40;99.90;;;;;;5016085;28;20014;-78
2021/05/28 05:29:37;;;;;;;2.97;1.33;;;11.20;99.90;;;;;;5015662;28;20030;-79
2021/05/28 05:32:02;;;;;;;1.40;1.30;;;11.20;99.90;;;;;;5016073;28;20057;-77
2021/05/28 05:34:28;;;;;;;2.30;1.48;;;11.20;99.90;;;;;;5015685;28;20096;-77
2021/05/28 05:36:55;;;;;;;1.88;1.20;;;11.40;99.90;;;;;;5015787;28;20030;-77
2021/05/28 05:39:23;;;;;;;3.00;1.30;;;11.40;99.90;;;;;;5015448;28;20347;-78
2021/05/28 05:41:49;;;;;;;4.13;1.52;;;11.50;99.90;;;;;;5015594;28;20026;-80
2021/05/28 05:44:15;;;;;;;9.02;1.90;;;11.50;99.90;;;;;;5015518;28;20152;-77
2021/05/28 05:46:41;;;;;;;1.70;1.40;;;11.60;99.90;;;;;;5015785;28;20038;-76
2021/05/28 05:49:07;;;;;;;2.55;1.45;;;11.70;99.90;;;;;;4998106;28;20048;-78
2021/05/28 05:51:32;;;;;;;2.90;1.45;;;11.90;99.90;;;;;;4998337;28;20034;-78
2021/05/28 05:53:58;;;;;;;4.32;1.67;;;12.20;99.90;;;;;;4998198;28;20044;-77
2021/05/28 05:56:25;;;;;;;3.85;1.42;;;12.30;99.90;;;;;;4998161;28;20092;-79
2021/05/28 05:58:51;;;;;;;3.22;1.52;;;12.50;99.90;;;;;;5015727;28;20045;-79
2021/05/28 06:01:16;;;;;;;4.10;1.70;;;12.70;99.90;;;;;;4997967;28;20159;-79
2021/05/28 06:03:42;;;;;;;4.68;1.48;;;12.80;99.90;;;;;;5015622;28;20121;-78
2021/05/28 06:06:08;;;;;;;2.58;1.83;;;13.00;99.90;;;;;;5015464;28;20128;-78
2021/05/28 06:08:33;;;;;;;6.72;1.63;;;12.90;99.90;;;;;;4997707;28;20116;-79
2021/05/28 06:10:59;;;;;;;3.05;1.30;;;13.00;99.90;;;;;;5015233;28;20052;-77
2021/05/28 06:13:25;;;;;;;2.28;1.50;;;13.00;99.90;;;;;;5015495;28;20032;-78
2021/05/28 06:15:51;;;;;;;3.90;1.20;;;13.20;99.90;;;;;;5015030;28;20026;-78
2021/05/28 06:18:17;;;;;;;3.15;1.50;;;13.40;99.90;;;;;;5015199;28;20022;-77
2021/05/28 06:20:42;;;;;;;5.18;1.38;;;13.40;99.90;;;;;;5015001;28;20083;-77
2021/05/28 06:23:08;;;;;;;2.35;1.60;;;13.70;99.90;;;;;;4997117;28;20022;-75
2021/05/28 06:25:35;;;;;;;1.83;1.20;;;14.00;99.90;;;;;;5014780;28;20157;-78
2021/05/28 06:28:01;;;;;;;3.97;1.25;;;14.30;99.90;;;;;;4997284;28;20037;-78
2021/05/28 06:30:27;;;;;;;1.15;1.00;;;14.70;99.90;;;;;;4996760;28;20033;-75
2021/05/28 06:32:52;;;;;;;3.75;1.30;;;15.00;99.90;;;;;;5014488;28;20042;-76
2021/05/28 06:35:18;;;;;;;8.88;1.38;;;15.00;99.90;;;;;;5014573;28;20026;-76
2021/05/28 06:37:44;;;;;;;3.45;1.05;;;14.90;99.90;;;;;;5000548;28;20028;-75
2021/05/28 06:40:13;;;;;;;2.13;1.08;;;15.10;99.90;;;;;;5032900;28;20501;-74
2021/05/28 06:42:38;;;;;;;3.53;1.80;;;15.40;99.90;;;;;;5034201;28;20540;-78
2021/05/28 06:45:05;;;;;;;1.65;1.00;;;15.70;99.90;;;;;;5034036;28;20116;-79
2021/05/28 06:47:30;;;;;;;3.47;1.40;;;15.80;99.90;;;;;;5033363;28;20032;-78
2021/05/28 06:49:56;;;;;;;1.98;1.35;;;15.80;99.90;;;;;;5033706;28;20432;-77
2021/05/28 06:52:22;;;;;;;5.63;0.95;;;15.80;99.90;;;;;;5033871;28;20029;-78
2021/05/28 06:54:47;;;;;;;3.40;0.98;;;15.80;99.90;;;;;;5015929;28;20038;-78
2021/05/28 06:57:13;;;;;;;1.42;1.00;;;15.90;99.90;;;;;;5016102;28;20029;-80
2021/05/28 06:59:39;;;;;;;2.60;0.70;;;16.10;99.90;;;;;;5033726;28;20436;-78
2021/05/28 07:02:06;;;;;;;1.65;0.82;;;16.10;99.90;;;;;;5033809;28;20064;-79
2021/05/28 07:04:33;;;;;;;1.50;0.80;;;16.10;99.90;;;;;;5015670;28;20029;-78
2021/05/28 07:06:59;;;;;;;1.95;0.70;;;16.30;99.90;;;;;;5033398;28;20049;-78
2021/05/28 07:09:24;;;;;;;1.75;0.75;;;16.40;99.90;;;;;;5015775;28;20083;-78
2021/05/28 07:11:50;;;;;;;1.15;0.55;;;16.70;99.90;;;;;;5015672;28;20041;-77
2021/05/28 07:14:16;;;;;;;2.08;0.60;;;16.90;99.90;;;;;;5015756;28;20469;-79
2021/05/28 07:16:41;;;;;;;1.63;0.80;;;17.20;99.90;;;;;;5033475;28;20056;-79
2021/05/28 07:19:07;;;;;;;1.45;0.50;;;17.20;99.90;;;;;;5033172;28;20367;-79
2021/05/28 07:21:32;;;;;;;2.22;0.70;;;17.30;99.90;;;;;;5033310;28;20029;-79
2021/05/28 07:23:58;;;;;;;4.40;0.70;;;17.40;99.90;;;;;;5033206;28;20461;-79
2021/05/28 07:26:24;;;;;;;1.42;0.50;;;17.50;99.90;;;;;;5015402;28;20034;-79
2021/05/28 07:28:50;;;;;;;1.63;0.68;;;17.40;99.60;;;;;;5015351;28;20025;-79
2021/05/28 07:31:15;;;;;;;1.38;0.70;;;17.10;97.90;;;;;;5032924;28;20041;-78
2021/05/28 07:33:41;;;;;;;1.35;0.80;;;17.20;99.30;;;;;;5032559;28;20065;-77
2021/05/28 07:36:09;;;;;;;1.80;0.70;;;17.00;98.30;;;;;;5033083;28;20048;-79
2021/05/28 07:38:36;;;;;;;3.55;0.82;;;17.20;97.70;;;;;;5015072;28;20108;-79
2021/05/28 07:41:02;;;;;;;1.75;0.68;;;17.10;96.90;;;;;;5032932;28;20036;-79
2021/05/28 07:43:27;;;;;;;1.75;0.88;;;17.20;98.10;;;;;;5015240;28;20029;-79
2021/05/28 07:45:53;;;;;;;2.67;0.95;;;17.30;99.00;;;;;;5032754;28;20028;-78
2021/05/28 07:48:20;;;;;;;1.33;0.57;;;17.30;98.30;;;;;;5032759;28;20025;-78
2021/05/28 07:50:46;;;;;;;1.98;0.77;;;17.40;98.40;;;;;;5032751;28;20033;-78
2021/05/28 07:53:22;;;;;;;2.17;0.50;;;17.30;95.30;;;;;;5032627;28;20041;-76
2021/05/28 07:55:49;;;;;;;1.75;0.70;;;17.40;97.70;;;;;;5032747;28;20545;-78
2021/05/28 07:58:17;;;;;;;2.05;0.75;;;17.40;96.90;;;;;;5032511;28;20029;-76
2021/05/28 08:00:43;;;;;;;5.57;0.93;;;17.50;96.40;;;;;;5014885;28;20491;-78
2021/05/28 08:03:08;;;;;;;0.70;0.40;;;17.50;97.50;;;;;;5032518;28;20030;-79
2021/05/28 08:05:34;;;;;;;0.80;0.60;;;17.50;96.00;;;;;;5014861;28;20026;-78
2021/05/28 08:08:00;;;;;;;2.58;0.60;;;17.50;94.70;;;;;;5032390;28;20009;-78
2021/05/28 08:10:27;;;;;;;1.55;0.50;;;17.40;94.50;;;;;;5014490;28;20064;-78
2021/05/28 08:12:53;;;;;;;1.58;0.60;;;17.60;94.90;;;;;;5014768;28;20462;-76
2021/05/28 08:15:19;;;;;;;0.90;0.40;;;17.60;94.90;;;;;;5014468;28;20040;-78
2021/05/28 08:17:46;;;;;;;5.20;0.68;;;17.90;94.40;;;;;;5031486;28;20489;-77
2021/05/28 08:20:13;;;;;;;1.27;0.65;;;18.10;94.50;;;;;;5032231;28;20078;-77
2021/05/28 08:22:38;;;;;;;0.77;0.50;;;18.00;92.80;;;;;;5032288;28;20025;-78
2021/05/28 08:25:04;;;;;;;1.63;0.50;;;18.20;92.20;;;;;;5032284;28;20033;-77
2021/05/28 08:27:30;;;;;;;1.20;0.55;;;18.20;93.30;;;;;;5032096;28;20027;-78
2021/05/28 08:29:56;;;;;;;2.05;0.40;;;18.10;91.30;;;;;;5031993;28;20026;-80
2021/05/28 08:32:22;;;;;;;3.42;1.05;;;18.00;93.20;;;;;;5012448;28;20052;-81
2021/05/28 08:34:47;;;;;;;4.13;0.68;;;18.20;92.50;;;;;;5033044;28;20160;-82
2021/05/28 08:37:13;;;;;;;3.22;0.60;;;18.50;93.20;;;;;;5032947;28;20060;-80
2021/05/28 08:39:39;;;;;;;0.63;0.50;;;18.90;92.50;;;;;;5015143;28;20013;-79
2021/05/28 08:42:05;;;;;;;2.70;0.38;;;19.10;91.70;;;;;;5033489;28;20061;-80
2021/05/28 08:44:32;;;;;;;1.30;0.43;;;19.30;90.90;;;;;;5015620;28;20026;-79
2021/05/28 08:46:59;;;;;;;1.60;0.60;;;19.30;90.20;;;;;;5015430;28;20469;-81
2021/05/28 08:49:25;;;;;;;1.17;0.45;;;19.30;89.80;;;;;;5015424;28;20023;-81
2021/05/28 08:51:50;;;;;;;3.65;0.40;;;19.40;90.40;;;;;;5015734;28;20663;-79
2021/05/28 08:54:17;;;;;;;4.68;0.50;;;19.50;88.80;;;;;;5015773;28;20036;-80
2021/05/28 08:56:46;;;;;;;0.68;0.40;;;19.40;88.60;;;;;;5033155;28;20016;-81
2021/05/28 08:59:12;;;;;;;0.85;0.47;;;19.20;87.80;;;;;;5014884;28;20064;-78
2021/05/28 09:01:38;;;;;;;1.00;0.43;;;19.40;88.80;;;;;;5015716;28;20057;-80
2021/05/28 09:04:05;;;;;;;1.05;0.60;;;19.50;87.10;;;;;;5015283;28;20025;-81
2021/05/28 09:06:45;;;;;;;0.95;0.50;;;19.60;87.50;;;;;;5016613;28;20503;-80
2021/05/28 09:09:12;;;;;;;0.85;0.50;;;19.80;86.00;;;;;;5015428;28;20025;-80
2021/05/28 09:12:02;;;;;;;2.42;0.70;;;19.90;86.20;;;;;;5033756;28;20358;-80
2021/05/28 09:14:35;;;;;;;1.67;0.60;;;20.00;84.40;;;;;;5023500;28;20512;-82
2021/05/28 09:17:03;;;;;;;2.65;0.52;;;20.20;86.00;;;;;;5016154;28;20034;-85
2021/05/28 09:19:29;;;;;;;2.55;0.50;;;20.50;82.40;;;;;;5033972;28;20025;-78
2021/05/28 09:22:06;;;;;;;1.05;0.32;;;20.30;80.20;;;;;;5016376;28;20469;-81
2021/05/28 09:24:37;;;;;;;0.65;0.43;;;20.10;78.70;;;;;;5034110;28;20021;-87
2021/05/28 09:27:28;;;;;;;0.93;0.47;;;19.90;79.90;;;;;;5033930;28;20036;-84
2021/05/28 09:30:12;;;;;;;1.85;0.50;;;19.70;76.70;;;;;;5037122;28;20025;-84
2021/05/28 09:32:43;;;;;;;1.02;0.50;;;19.40;79.30;;;;;;5036871;28;20060;-87
2021/05/28 09:35:17;;;;;;;0.70;0.40;;;19.30;79.60;;;;;;5037563;28;20029;-86
2021/05/28 09:37:46;;;;;;;0.93;0.50;;;19.30;78.00;;;;;;5044381;28;20026;-84
2021/05/28 09:40:17;;;;;;;2.17;0.60;;;19.00;77.90;;;;;;5041389;28;20025;-83
2021/05/28 09:43:01;;;;;;;3.55;0.63;;;18.80;81.40;;;;;;5037381;28;20032;-84
2021/05/28 09:45:35;;;;;;;2.38;0.70;;;18.80;82.50;;;;;;5037437;28;20473;-81
2021/05/28 09:48:14;;;;;;;0.60;0.40;;;18.90;82.60;;;;;;5037425;28;20028;-84
2021/05/28 09:50:53;;;;;;;1.65;0.80;;;18.80;80.20;;;;;;5036768;28;20041;-82
2021/05/28 09:53:40;;;;;;;2.20;0.60;;;19.00;81.10;;;;;;5037120;28;20025;-79
2021/05/28 09:56:28;;;;;;;0.68;0.40;;;19.40;82.30;;;;;;5036567;28;20030;-83
2021/05/28 09:59:06;;;;;;;2.88;0.60;;;19.70;81.20;;;;;;5018997;28;20018;-81
2021/05/28 10:01:36;;;;;;;1.45;0.57;;;20.20;81.60;;;;;;5019233;28;20017;-79
2021/05/28 10:04:08;;;;;;;2.20;0.40;;;20.30;77.80;;;;;;5019237;28;20461;-78
2021/05/28 10:06:37;;;;;;;1.38;0.50;;;20.50;74.30;;;;;;5036926;28;20025;-79
2021/05/28 10:09:05;;;;;;;0.70;0.50;;;20.30;76.10;;;;;;5036489;28;20056;-81
2021/05/28 10:11:32;;;;;;;0.80;0.40;;;20.00;74.10;;;;;;5018605;28;20365;-82
2021/05/28 10:13:59;;;;;;;1.08;0.50;;;20.00;75.10;;;;;;5036393;28;20029;-83
2021/05/28 10:16:25;;;;;;;9.32;1.00;;;19.90;75.50;;;;;;5018919;28;20025;-80
2021/05/28 10:18:53;;;;;;;3.25;0.50;;;19.80;75.90;;;;;;5036627;28;20025;-79
2021/05/28 10:21:18;;;;;;;1.10;0.60;;;19.70;77.00;;;;;;5036658;28;20032;-78
2021/05/28 10:23:44;;;;;;;0.70;0.40;;;19.50;76.20;;;;;;5036523;28;20014;-79
2021/05/28 10:26:11;;;;;;;0.85;0.38;;;19.20;74.20;;;;;;5036763;28;20021;-78
2021/05/28 10:28:41;;;;;;;3.08;0.50;;;19.10;69.30;;;;;;5018636;28;20518;-79
2021/05/28 10:31:07;;;;;;;2.38;1.10;;;19.10;69.60;;;;;;5036021;28;20110;-79
2021/05/28 10:33:34;;;;;;;2.25;0.90;;;19.10;70.00;;;;;;5018396;28;20529;-80
2021/05/28 10:36:04;;;;;;;4.65;0.50;;;19.00;69.90;;;;;;5036484;28;20025;-80
2021/05/28 10:38:30;;;;;;;1.75;0.47;;;18.90;73.50;;;;;;5035999;28;20025;-80
2021/05/28 10:41:07;;;;;;;3.03;1.60;;;18.90;78.50;;;;;;5017137;28;20405;-82
2021/05/28 10:43:38;;;;;;;1.23;0.60;;;18.90;74.40;;;;;;5035436;28;20576;-80
2021/05/28 10:46:07;;;;;;;5.05;0.57;;;19.00;77.90;;;;;;5036110;28;20025;-79
2021/05/28 10:48:39;;;;;;;2.35;0.40;;;18.80;77.60;;;;;;5035694;28;20466;-81
2021/05/28 10:51:14;;;;;;;4.25;0.50;;;18.80;80.30;;;;;;5018025;28;20038;-82
2021/05/28 10:53:41;;;;;;;3.33;0.57;;;18.70;82.10;;;;;;5017927;28;20079;-81
2021/05/28 10:56:09;;;;;;;1.70;0.60;;;18.60;83.90;;;;;;5036012;28;20025;-81
2021/05/28 10:58:52;;;;;;;1.48;0.52;;;18.50;82.50;;;;;;5018057;28;20028;-81
2021/05/28 11:01:42;;;;;;;0.93;0.30;;;18.50;82.50;;;;;;5035357;28;20037;-80
2021/05/28 11:04:22;;;;;;;1.02;0.25;;;18.60;82.70;;;;;;5035535;28;20049;-83
2021/05/28 11:06:58;;;;;;;3.72;0.50;;;18.80;82.60;;;;;;5035246;28;20030;-80
2021/05/28 11:09:36;;;;;;;1.15;0.40;;;18.90;83.60;;;;;;5035570;28;20021;-81
2021/05/28 11:12:14;;;;;;;3.05;0.60;;;19.00;85.20;;;;;;5035449;28;20103;-81
2021/05/28 11:15:10;;;;;;;3.28;0.65;;;19.00;84.30;;;;;;5035515;28;20101;-80
2021/05/28 11:17:56;;;;;;;5.88;0.70;;;19.10;85.90;;;;;;5035424;28;20021;-80
2021/05/28 11:20:32;;;;;;;0.63;0.38;;;19.20;83.80;;;;;;5017257;28;20029;-81
2021/05/28 11:22:59;;;;;;;1.13;0.30;;;19.40;76.90;;;;;;5035281;28;20120;-80
2021/05/28 11:25:30;;;;;;;0.70;0.45;;;19.30;74.40;;;;;;5017781;28;20029;-80
2021/05/28 11:28:09;;;;;;;0.93;0.47;;;19.40;75.10;;;;;;5035114;28;20485;-82
2021/05/28 11:30:59;;;;;;;0.95;0.55;;;19.40;79.50;;;;;;5017602;28;20060;-79
2021/05/28 11:33:33;;;;;;;1.30;0.40;;;19.30;80.90;;;;;;5034773;28;20091;-83
2021/05/28 11:36:41;;;;;;;2.27;0.50;;;19.50;79.60;;;;;;5017967;28;20030;-82
2021/05/28 11:39:08;;;;;;;1.73;0.40;;;19.60;79.70;;;;;;5035379;28;20465;-81
2021/05/28 11:41:48;;;;;;;4.10;0.65;;;19.60;81.20;;;;;;5017528;28;20029;-81
2021/05/28 11:44:18;;;;;;;4.53;0.50;;;19.60;80.30;;;;;;5035148;28;20033;-80
2021/05/28 11:46:45;;;;;;;0.73;0.38;;;19.70;77.80;;;;;;5017366;28;20049;-82
2021/05/28 11:49:14;;;;;;;1.92;0.50;;;19.60;77.00;;;;;;5034940;28;20140;-84
2021/05/28 11:51:40;;;;;;;2.70;0.57;;;19.60;75.30;;;;;;5034433;28;20034;-82
2021/05/28 11:54:24;;;;;;;4.95;0.68;;;19.50;74.00;;;;;;5034587;28;20025;-83
2021/05/28 11:57:03;;;;;;;0.95;0.55;;;19.40;75.20;;;;;;5034707;28;20029;-82
2021/05/28 11:59:54;;;;;;;2.85;0.65;;;19.50;73.20;;;;;;5016836;28;20078;-86
2021/05/28 12:02:44;;;;;;;1.30;0.32;;;19.40;75.10;;;;;;5034416;28;20021;-84
2021/05/28 12:05:29;;;;;;;4.43;0.65;;;19.60;78.00;;;;;;5035061;28;20025;-86
2021/05/28 12:08:11;;;;;;;1.05;0.50;;;19.70;78.80;;;;;;5034954;28;20067;-85
2021/05/28 12:10:39;;;;;;;0.82;0.40;;;19.80;77.60;;;;;;5034335;28;20037;-86
2021/05/28 12:13:15;;;;;;;1.63;0.50;;;19.80;74.70;;;;;;5034562;28;20457;-85
2021/05/28 12:15:45;;;;;;;0.80;0.50;;;19.80;75.50;;;;;;5034903;28;20096;-86
2021/05/28 12:18:31;;;;;;;1.80;0.60;;;19.90;72.70;;;;;;5034506;28;20029;-86
2021/05/28 12:21:02;;;;;;;1.88;0.52;;;19.80;73.90;;;;;;5034749;28;20496;-85
2021/05/28 12:23:36;;;;;;;6.50;0.73;;;19.90;77.20;;;;;;5034571;28;20025;-84
2021/05/28 12:26:07;;;;;;;0.80;0.40;;;20.10;73.40;;;;;;5034824;28;20052;-85
2021/05/28 12:28:38;;;;;;;1.35;0.40;;;20.10;72.90;;;;;;5034382;28;20029;-82
2021/05/28 12:31:13;;;;;;;1.40;0.40;;;20.20;74.00;;;;;;5034381;28;20029;-88
2021/05/28 12:33:43;;;;;;;0.40;0.30;;;20.10;69.90;;;;;;5016654;28;20042;-86
2021/05/28 12:36:11;;;;;;;1.77;0.50;;;20.00;71.40;;;;;;5016744;28;20466;-85
2021/05/28 12:38:42;;;;;;;10.38;6.18;;;19.80;70.40;;;;;;5034131;28;20022;-86
2021/05/28 12:41:14;;;;;;;4.30;0.70;;;19.70;70.40;;;;;;5034250;28;20026;-79
2021/05/28 12:43:43;;;;;;;1.90;0.60;;;19.80;71.90;;;;;;5017048;28;20038;-85
2021/05/28 12:46:29;;;;;;;7.15;1.02;;;19.90;73.90;;;;;;5034348;28;20029;-84
2021/05/28 12:48:59;;;;;;;1.65;0.60;;;19.90;69.70;;;;;;5033356;28;20028;-85
2021/05/28 12:51:33;;;;;;;1.27;0.50;;;20.00;70.30;;;;;;5016919;28;20087;-85
2021/05/28 12:54:24;;;;;;;2.00;0.50;;;19.90;66.70;;;;;;5034244;28;20031;-86
2021/05/28 12:56:54;;;;;;;0.95;0.40;;;19.70;68.80;;;;;;5016643;28;20022;-87